Time;durP1;ratioP1;P1;durP2;ratioP2;P2;SDS_P1;SDS_P2;PMS_P1;PMS_P2;Temp;Humidity;BMP_temperature;BMP_pressure;BME280_temperature;BME280_humidity;BME280_pressure;Samples;Min_cycle;Max_cycle;Signal;HPM_P1;HPM_P2
2021/07/03 00:00:41;;;;;;;16.08;11.15;;;12.30;99.90;;;;;;5032774;28;20502;-81
2021/07/03 00:03:06;;;;;;;21.75;11.68;;;12.30;99.90;;;;;;5034054;28;20049;-81
2021/07/03 00:05:32;;;;;;;15.70;10.80;;;12.20;99.90;;;;;;5027940;28;20057;-82
2021/07/03 00:07:58;;;;;;;18.05;10.93;;;12.20;99.90;;;;;;5015769;28;20039;-84
2021/07/03 00:10:24;;;;;;;16.92;11.13;;;12.20;99.90;;;;;;5027331;28;20065;-83
2021/07/03 00:12:50;;;;;;;16.55;11.10;;;12.20;99.90;;;;;;5026351;28;20041;-83
2021/07/03 00:15:22;;;;;;;18.45;12.18;;;12.10;99.90;;;;;;5032440;28;20042;-82
2021/07/03 00:17:49;;;;;;;19.58;11.27;;;12.10;99.90;;;;;;5028212;28;20044;-81
2021/07/03 00:20:15;;;;;;;16.13;10.32;;;12.10;99.90;;;;;;5023515;28;20034;-83
2021/07/03 00:22:41;;;;;;;16.75;10.90;;;12.10;99.90;;;;;;5024339;28;20075;-83
2021/07/03 00:25:07;;;;;;;17.02;11.73;;;12.10;99.90;;;;;;5026750;28;20116;-81
2021/07/03 00:27:33;;;;;;;22.77;12.02;;;12.10;99.90;;;;;;5029410;28;20053;-83
2021/07/03 00:29:59;;;;;;;18.05;11.75;;;12.10;99.90;;;;;;5016592;28;20041;-82
2021/07/03 00:32:25;;;;;;;19.85;12.40;;;12.10;99.90;;;;;;5034632;28;20454;-82
2021/07/03 00:34:51;;;;;;;16.92;10.43;;;12.20;99.90;;;;;;5032467;28;20037;-82
2021/07/03 00:37:17;;;;;;;16.83;11.35;;;12.10;99.90;;;;;;5031376;28;20080;-84
2021/07/03 00:39:43;;;;;;;17.67;11.13;;;12.10;99.90;;;;;;5022121;28;20037;-83
2021/07/03 00:42:09;;;;;;;;;;;12.10;99.90;;;;;;5033614;28;20037;-82
2021/07/03 00:44:38;;;;;;;16.63;11.35;;;12.10;99.90;;;;;;5019537;28;19921;-82
2021/07/03 00:47:06;;;;;;;18.23;12.55;;;12.00;99.90;;;;;;5027240;28;20042;-83
2021/07/03 00:49:33;;;;;;;16.65;11.15;;;11.90;99.90;;;;;;5031906;28;20374;-82
2021/07/03 00:52:00;;;;;;;17.33;11.88;;;11.90;99.90;;;;;;5028375;28;20112;-84
2021/07/03 00:54:28;;;;;;;19.63;12.00;;;11.80;99.90;;;;;;5025904;28;20092;-84
2021/07/03 00:57:04;;;;;;;17.23;12.05;;;11.80;99.90;;;;;;5021296;28;20064;-85
2021/07/03 00:59:44;;;;;;;16.55;11.50;;;11.80;99.90;;;;;;5027246;28;20044;-84
2021/07/03 01:02:12;;;;;;;17.05;12.40;;;11.70;99.90;;;;;;5026644;28;20038;-82
2021/07/03 01:04:39;;;;;;;15.27;10.95;;;11.70;99.90;;;;;;5017557;28;20541;-82
2021/07/03 01:07:07;;;;;;;16.48;10.93;;;11.70;99.90;;;;;;5026573;28;20535;-83
2021/07/03 01:09:33;;;;;;;19.42;12.10;;;11.70;99.90;;;;;;5024913;28;20083;-82
2021/07/03 01:12:00;;;;;;;19.90;11.02;;;11.70;99.90;;;;;;5032673;28;20041;-83
2021/07/03 01:14:26;;;;;;;19.00;11.85;;;11.60;99.90;;;;;;5023256;28;20088;-83
2021/07/03 01:16:53;;;;;;;14.63;10.43;;;11.60;99.90;;;;;;5015122;28;20053;-83
2021/07/03 01:19:20;;;;;;;19.27;10.63;;;11.60;99.90;;;;;;5021734;28;20033;-84
2021/07/03 01:21:53;;;;;;;16.25;11.45;;;11.60;99.90;;;;;;5025365;28;20045;-83
2021/07/03 01:24:23;;;;;;;14.43;10.60;;;11.60;99.90;;;;;;5033867;28;20069;-82
2021/07/03 01:26:51;;;;;;;15.73;11.02;;;11.50;99.90;;;;;;5024773;28;20065;-82
2021/07/03 01:29:19;;;;;;;17.13;10.85;;;11.50;99.90;;;;;;5018538;28;20040;-83
2021/07/03 01:31:47;;;;;;;14.23;11.15;;;11.50;99.90;;;;;;5036109;28;20040;-84
2021/07/03 01:34:17;;;;;;;16.98;11.95;;;11.50;99.90;;;;;;5030074;28;20099;-84
2021/07/03 01:36:44;;;;;;;17.83;12.35;;;11.50;99.90;;;;;;5039084;28;20060;-82
2021/07/03 01:39:10;;;;;;;18.45;10.75;;;11.40;99.90;;;;;;5015228;28;20125;-84
2021/07/03 01:41:36;;;;;;;16.50;11.02;;;11.40;99.90;;;;;;5016104;28;20048;-83
2021/07/03 01:44:04;;;;;;;17.55;12.23;;;11.40;99.90;;;;;;5018162;28;20069;-83
2021/07/03 01:46:31;;;;;;;14.77;9.80;;;11.40;99.90;;;;;;5029163;28;20048;-83
2021/07/03 01:49:08;;;;;;;18.52;10.77;;;11.30;99.90;;;;;;5014438;28;20590;-84
2021/07/03 01:51:34;;;;;;;14.35;10.80;;;11.30;99.90;;;;;;5014281;28;20041;-85
2021/07/03 01:54:01;;;;;;;17.95;11.40;;;11.30;99.90;;;;;;5013660;28;20045;-81
2021/07/03 01:56:27;;;;;;;;;;;11.30;99.90;;;;;;5014674;28;20042;-81
2021/07/03 01:58:52;;;;;;;14.93;10.13;;;11.20;99.90;;;;;;5016712;28;20283;-83
2021/07/03 02:01:18;;;;;;;14.80;9.90;;;11.20;99.90;;;;;;5016862;28;20493;-82
2021/07/03 02:03:45;;;;;;;14.98;11.05;;;11.30;99.90;;;;;;5016307;28;20384;-82
2021/07/03 02:06:11;;;;;;;16.35;11.68;;;11.20;99.90;;;;;;5023158;28;20057;-82
2021/07/03 02:08:37;;;;;;;16.50;10.73;;;11.20;99.90;;;;;;5019650;28;20045;-82
2021/07/03 02:11:03;;;;;;;18.30;10.88;;;11.20;99.90;;;;;;5018636;28;20088;-82
2021/07/03 02:13:30;;;;;;;16.92;11.32;;;11.20;99.90;;;;;;5015469;28;20371;-81
2021/07/03 02:15:56;;;;;;;17.55;10.02;;;11.10;99.90;;;;;;5018580;28;20538;-81
2021/07/03 02:18:22;;;;;;;15.10;10.05;;;11.20;99.90;;;;;;5012999;28;20126;-83
2021/07/03 02:20:49;;;;;;;15.68;9.93;;;11.00;99.90;;;;;;5030669;28;20038;-82
2021/07/03 02:23:17;;;;;;;15.45;10.63;;;11.00;99.90;;;;;;5025751;28;20050;-81
2021/07/03 02:25:45;;;;;;;17.13;11.32;;;11.00;99.90;;;;;;5014808;28;20471;-82
2021/07/03 02:28:12;;;;;;;16.77;10.40;;;11.00;99.90;;;;;;5015444;28;20483;-81
2021/07/03 02:30:38;;;;;;;17.73;11.48;;;10.90;99.90;;;;;;5029761;28;20157;-83
2021/07/03 02:33:04;;;;;;;15.77;10.07;;;11.00;99.90;;;;;;5020153;28;20093;-83
2021/07/03 02:35:30;;;;;;;21.05;12.05;;;11.00;99.90;;;;;;5029329;28;20036;-82
2021/07/03 02:37:56;;;;;;;16.42;11.57;;;11.00;99.90;;;;;;5011865;28;20053;-83
2021/07/03 02:40:22;;;;;;;18.13;11.10;;;11.00;99.90;;;;;;5026157;28;20037;-82
2021/07/03 02:42:47;;;;;;;18.20;11.25;;;11.00;99.90;;;;;;5027739;28;20491;-82
2021/07/03 02:45:16;;;;;;;18.75;10.88;;;10.90;99.90;;;;;;5032064;28;20037;-82
2021/07/03 02:47:43;;;;;;;16.27;10.75;;;10.90;99.90;;;;;;5025141;28;20133;-81
2021/07/03 02:50:12;;;;;;;15.57;9.88;;;10.90;99.90;;;;;;5025055;28;20064;-81
2021/07/03 02:52:38;;;;;;;17.40;12.18;;;10.90;99.90;;;;;;5023656;28;20052;-82
2021/07/03 02:55:05;;;;;;;15.27;10.30;;;10.80;99.90;;;;;;5013851;28;20380;-81
2021/07/03 02:57:32;;;;;;;14.57;10.48;;;10.80;99.90;;;;;;5013600;28;20033;-83
2021/07/03 02:59:58;;;;;;;13.90;9.82;;;10.80;99.90;;;;;;5026417;28;20068;-82
2021/07/03 03:02:24;;;;;;;15.88;10.82;;;10.80;99.90;;;;;;5022108;28;20072;-82
2021/07/03 03:04:49;;;;;;;17.17;10.77;;;10.70;99.90;;;;;;5023352;28;20123;-83
2021/07/03 03:07:15;;;;;;;16.27;10.95;;;10.70;99.90;;;;;;5020133;28;20054;-83
2021/07/03 03:09:41;;;;;;;16.17;11.48;;;10.70;99.90;;;;;;5014036;28;20118;-81
2021/07/03 03:12:10;;;;;;;16.48;10.73;;;10.60;99.90;;;;;;5021124;28;20045;-82
2021/07/03 03:14:36;;;;;;;15.40;10.35;;;10.60;99.90;;;;;;5023273;28;20045;-83
2021/07/03 03:17:02;;;;;;;17.75;11.05;;;10.70;99.90;;;;;;5027998;28;20029;-83
2021/07/03 03:19:28;;;;;;;;;;;10.60;99.90;;;;;;5020945;28;20034;-81
2021/07/03 03:21:54;;;;;;;14.35;10.60;;;10.60;99.90;;;;;;5027560;28;19948;-83
2021/07/03 03:24:19;;;;;;;15.18;9.68;;;10.60;99.90;;;;;;5024719;28;20475;-84
2021/07/03 03:26:45;;;;;;;15.18;10.60;;;10.60;99.90;;;;;;5031073;28;20033;-82
2021/07/03 03:29:11;;;;;;;16.60;9.77;;;10.50;99.90;;;;;;5018390;28;20041;-81
2021/07/03 03:31:37;;;;;;;14.65;10.88;;;10.60;99.90;;;;;;5020052;28;20037;-83
2021/07/03 03:34:03;;;;;;;18.30;12.73;;;10.60;99.90;;;;;;5019362;28;20042;-80
2021/07/03 03:36:29;;;;;;;13.55;9.80;;;10.60;99.90;;;;;;5018543;28;20037;-81
2021/07/03 03:38:54;;;;;;;15.55;10.02;;;10.60;99.90;;;;;;5019085;28;20112;-82
2021/07/03 03:41:20;;;;;;;20.38;11.93;;;10.60;99.90;;;;;;5021715;28;20045;-83
2021/07/03 03:43:47;;;;;;;16.17;10.90;;;10.60;99.90;;;;;;5033400;28;20561;-82
2021/07/03 03:46:12;;;;;;;;;;;10.70;99.90;;;;;;5039947;28;20037;-81
2021/07/03 03:48:38;;;;;;;16.10;10.30;;;10.70;99.90;;;;;;5061471;28;19923;-82
2021/07/03 03:51:04;;;;;;;13.15;9.82;;;10.80;99.90;;;;;;5026575;28;20412;-81
2021/07/03 03:53:30;;;;;;;16.52;10.00;;;10.80;99.90;;;;;;5028193;28;20045;-83
2021/07/03 03:55:56;;;;;;;16.70;10.55;;;10.80;99.90;;;;;;5014252;28;20124;-82
2021/07/03 03:58:22;;;;;;;12.65;9.93;;;10.80;99.90;;;;;;5030766;28;20486;-81
2021/07/03 04:00:48;;;;;;;12.68;9.52;;;10.80;99.90;;;;;;5024029;28;20037;-82
2021/07/03 04:03:14;;;;;;;14.40;9.63;;;10.80;99.90;;;;;;5017230;28;20037;-82
2021/07/03 04:05:40;;;;;;;15.35;10.68;;;10.90;99.90;;;;;;5016771;28;20675;-82
2021/07/03 04:08:06;;;;;;;15.60;9.32;;;10.90;99.90;;;;;;5017281;28;20046;-81
2021/07/03 04:10:32;;;;;;;17.98;10.65;;;10.90;99.90;;;;;;5013291;28;20095;-82
2021/07/03 04:12:59;;;;;;;17.70;10.30;;;11.00;99.90;;;;;;5027244;28;20045;-82
2021/07/03 04:15:25;;;;;;;22.73;13.00;;;11.00;99.90;;;;;;5026849;28;20041;-81
2021/07/03 04:17:51;;;;;;;17.15;11.27;;;11.10;99.90;;;;;;5028672;28;20394;-81
2021/07/03 04:20:16;;;;;;;16.08;10.32;;;11.20;99.90;;;;;;5020185;28;20064;-81
2021/07/03 04:22:43;;;;;;;28.02;13.45;;;11.30;99.90;;;;;;5026565;28;20451;-80
2021/07/03 04:25:11;;;;;;;;;;;11.40;99.90;;;;;;5023702;28;20590;-81
2021/07/03 04:27:38;;;;;;;27.05;15.40;;;11.50;99.90;;;;;;5030882;28;19983;-83
2021/07/03 04:30:06;;;;;;;22.58;14.77;;;11.50;99.90;;;;;;5024056;28;20113;-83
2021/07/03 04:32:33;;;;;;;22.88;13.45;;;11.70;99.90;;;;;;5029125;28;20056;-83
2021/07/03 04:34:59;;;;;;;21.20;13.32;;;11.80;99.90;;;;;;5022283;28;20045;-82
2021/07/03 04:37:25;;;;;;;21.70;14.55;;;11.90;99.90;;;;;;5030077;28;20037;-83
2021/07/03 04:39:52;;;;;;;19.88;13.55;;;11.90;99.90;;;;;;5036933;28;20116;-83
2021/07/03 04:42:18;;;;;;;20.75;13.05;;;12.00;99.90;;;;;;5030799;28;20083;-83
2021/07/03 04:44:44;;;;;;;25.17;15.70;;;12.10;99.90;;;;;;5038528;28;20502;-82
2021/07/03 04:47:10;;;;;;;30.30;17.85;;;12.20;99.90;;;;;;5028602;28;20368;-83
2021/07/03 04:49:35;;;;;;;24.50;15.70;;;12.30;99.90;;;;;;5013658;28;20255;-84
2021/07/03 04:52:02;;;;;;;30.42;16.95;;;12.40;99.90;;;;;;5018429;28;20049;-82
2021/07/03 04:54:28;;;;;;;33.83;19.88;;;12.50;99.90;;;;;;5013928;28;20120;-82
2021/07/03 04:57:06;;;;;;;29.20;19.23;;;12.80;99.90;;;;;;5013889;28;20048;-81
2021/07/03 04:59:43;;;;;;;31.88;19.48;;;12.70;99.90;;;;;;5018985;28;20030;-82
2021/07/03 05:02:11;;;;;;;32.13;19.02;;;12.90;99.90;;;;;;5022644;28;20411;-81
2021/07/03 05:04:38;;;;;;;29.17;19.52;;;13.00;99.90;;;;;;5020291;28;20137;-82
2021/07/03 05:07:05;;;;;;;24.45;16.60;;;13.10;99.90;;;;;;5023720;28;20133;-82
2021/07/03 05:09:32;;;;;;;28.58;17.90;;;13.30;99.90;;;;;;5019977;28;20116;-84
2021/07/03 05:11:58;;;;;;;26.70;16.95;;;13.40;99.90;;;;;;5020267;28;20073;-80
2021/07/03 05:14:24;;;;;;;29.23;17.50;;;13.50;99.90;;;;;;5031084;28;20057;-83
2021/07/03 05:16:50;;;;;;;;;;;13.60;99.90;;;;;;5027776;28;20049;-81
2021/07/03 05:19:17;;;;;;;22.23;16.52;;;13.70;99.90;;;;;;5019488;28;19921;-83
2021/07/03 05:21:43;;;;;;;24.10;15.93;;;13.80;99.90;;;;;;5027560;28;20041;-83
2021/07/03 05:24:10;;;;;;;21.05;14.80;;;13.90;99.90;;;;;;5025626;28;20046;-85
2021/07/03 05:26:38;;;;;;;20.77;14.00;;;14.00;99.90;;;;;;5023964;28;20033;-83
2021/07/03 05:29:05;;;;;;;21.75;13.57;;;14.20;99.90;;;;;;5018141;28;20034;-82
2021/07/03 05:31:31;;;;;;;22.55;14.23;;;14.30;99.90;;;;;;5024978;28;20642;-82
2021/07/03 05:33:57;;;;;;;21.98;13.98;;;14.40;99.90;;;;;;5028683;28;20038;-84
2021/07/03 05:36:24;;;;;;;17.77;12.57;;;14.50;99.90;;;;;;5024750;28;20403;-84
2021/07/03 05:38:50;;;;;;;17.33;12.77;;;14.70;99.90;;;;;;5023442;28;20041;-83
2021/07/03 05:41:17;;;;;;;;;;;14.80;99.90;;;;;;5025530;28;20037;-81
2021/07/03 05:43:43;;;;;;;16.38;11.65;;;14.90;99.90;;;;;;5030512;28;19928;-81
2021/07/03 05:46:10;;;;;;;15.93;12.10;;;15.10;99.90;;;;;;5024026;28;20041;-83
2021/07/03 05:48:39;;;;;;;17.20;10.77;;;15.20;99.90;;;;;;5014772;28;20044;-83
2021/07/03 05:51:04;;;;;;;13.02;10.23;;;15.30;99.90;;;;;;5027297;28;20041;-83
2021/07/03 05:53:30;;;;;;;13.57;9.82;;;15.50;99.90;;;;;;5027348;28;20042;-81
2021/07/03 05:55:56;;;;;;;;;;;15.60;99.90;;;;;;5017410;28;20095;-82
2021/07/03 05:58:22;;;;;;;15.77;8.82;;;15.70;99.90;;;;;;5015510;28;19921;-81
2021/07/03 06:00:48;;;;;;;;;;;15.80;99.90;;;;;;5016911;28;20460;-81
2021/07/03 06:03:15;;;;;;;15.40;8.20;;;15.90;99.90;;;;;;5030421;28;19925;-83
2021/07/03 06:05:40;;;;;;;13.32;8.15;;;16.00;99.90;;;;;;5020927;28;20049;-83
2021/07/03 06:08:07;;;;;;;9.90;7.15;;;16.00;99.90;;;;;;5030333;28;20053;-81
2021/07/03 06:10:34;;;;;;;9.98;7.35;;;16.00;99.90;;;;;;5025755;28;20111;-81
2021/07/03 06:13:00;;;;;;;9.75;7.03;;;16.00;99.90;;;;;;5026219;28;20091;-82
2021/07/03 06:15:26;;;;;;;12.48;8.68;;;16.10;99.90;;;;;;5026538;28;20042;-82
2021/07/03 06:17:52;;;;;;;12.73;8.30;;;16.10;99.90;;;;;;5020427;28;20073;-82
2021/07/03 06:20:18;;;;;;;14.85;8.85;;;16.20;99.90;;;;;;5029296;28;20069;-82
2021/07/03 06:22:44;;;;;;;;;;;16.30;99.90;;;;;;5025912;28;20464;-82
2021/07/03 06:25:11;;;;;;;12.32;8.38;;;16.40;99.90;;;;;;5019134;28;19927;-82
2021/07/03 06:27:38;;;;;;;11.48;8.93;;;16.50;99.90;;;;;;5027633;28;20388;-81
2021/07/03 06:30:09;;;;;;;13.45;9.43;;;16.60;99.90;;;;;;5025311;28;20045;-81
2021/07/03 06:32:35;;;;;;;12.10;8.68;;;16.80;99.90;;;;;;5030545;28;20125;-82
2021/07/03 06:35:05;;;;;;;15.15;10.27;;;16.90;99.90;;;;;;5025295;28;20387;-83
2021/07/03 06:37:32;;;;;;;12.57;9.75;;;17.10;99.90;;;;;;5018765;28;20034;-82
2021/07/03 06:39:58;;;;;;;13.40;10.13;;;17.30;99.90;;;;;;5031424;28;20060;-82
2021/07/03 06:42:24;;;;;;;13.27;9.48;;;17.50;99.90;;;;;;5028018;28;20756;-82
2021/07/03 06:44:51;;;;;;;14.88;9.30;;;17.70;99.90;;;;;;5027073;28;20087;-82
2021/07/03 06:47:18;;;;;;;15.63;9.82;;;17.90;99.90;;;;;;5033809;28;20054;-83
2021/07/03 06:49:43;;;;;;;15.88;10.60;;;18.00;99.90;;;;;;5029421;28;20033;-82
2021/07/03 06:52:10;;;;;;;;;;;18.00;99.90;;;;;;5029074;28;20025;-81
2021/07/03 06:54:37;;;;;;;10.73;8.20;;;18.20;99.90;;;;;;5014649;28;20306;-82
2021/07/03 06:57:03;;;;;;;10.80;7.43;;;18.30;99.90;;;;;;5033323;28;20164;-82
2021/07/03 06:59:31;;;;;;;12.30;7.47;;;18.50;99.90;;;;;;5024465;28;20037;-82
2021/07/03 07:01:57;;;;;;;14.90;8.13;;;18.70;99.90;;;;;;5028569;28;20048;-82
2021/07/03 07:04:24;;;;;;;12.35;7.72;;;18.90;99.90;;;;;;5022950;28;20491;-81
2021/07/03 07:06:55;;;;;;;9.75;6.90;;;19.20;99.90;;;;;;5029773;28;20060;-81
2021/07/03 07:09:25;;;;;;;9.70;7.43;;;19.40;99.90;;;;;;5030466;28;20049;-82
2021/07/03 07:11:52;;;;;;;9.23;7.75;;;19.50;99.90;;;;;;5026968;28;20133;-82
2021/07/03 07:14:18;;;;;;;10.77;7.10;;;19.60;99.90;;;;;;5032350;28;20060;-81
2021/07/03 07:16:45;;;;;;;9.63;7.43;;;19.80;99.90;;;;;;5032114;28;20041;-82
2021/07/03 07:19:11;;;;;;;8.90;7.07;;;19.90;99.90;;;;;;5019606;28;20108;-81
2021/07/03 07:21:37;;;;;;;12.45;7.90;;;20.00;99.90;;;;;;5023626;28;20132;-83
2021/07/03 07:24:04;;;;;;;10.77;8.10;;;20.00;99.90;;;;;;5028307;28;20398;-83
2021/07/03 07:26:30;;;;;;;15.15;6.82;;;20.00;99.90;;;;;;5018127;28;20128;-80
2021/07/03 07:28:56;;;;;;;8.35;6.53;;;19.80;99.90;;;;;;5026413;28;20163;-79
2021/07/03 07:31:22;;;;;;;9.57;6.88;;;19.80;99.90;;;;;;5029668;28;20483;-82
2021/07/03 07:33:48;;;;;;;;;;;19.90;99.90;;;;;;5030965;28;20798;-82
2021/07/03 07:36:14;;;;;;;8.38;6.65;;;20.00;99.90;;;;;;5031137;28;19927;-81
2021/07/03 07:38:40;;;;;;;9.30;6.45;;;20.00;99.90;;;;;;5029747;28;20631;-81
2021/07/03 07:41:06;;;;;;;8.20;6.10;;;20.10;99.90;;;;;;5026719;28;20049;-81
2021/07/03 07:43:33;;;;;;;9.75;6.60;;;20.30;99.90;;;;;;5029890;28;20111;-83
2021/07/03 07:46:00;;;;;;;8.52;6.20;;;20.40;99.90;;;;;;5017519;28;20479;-82
2021/07/03 07:48:31;;;;;;;9.57;6.57;;;20.40;99.90;;;;;;5034044;28;20095;-83
2021/07/03 07:51:00;;;;;;;10.45;5.47;;;20.40;99.90;;;;;;5028234;28;20076;-82
2021/07/03 07:53:26;;;;;;;11.38;6.63;;;20.50;99.90;;;;;;5033156;28;20046;-82
2021/07/03 07:55:52;;;;;;;9.88;6.90;;;20.50;99.90;;;;;;5029288;28;20121;-82
2021/07/03 07:58:18;;;;;;;9.73;6.85;;;20.50;99.90;;;;;;5023479;28;20067;-83
2021/07/03 08:00:44;;;;;;;6.65;5.43;;;20.50;99.90;;;;;;5024128;28;20042;-81
2021/07/03 08:03:11;;;;;;;9.13;5.15;;;20.60;99.90;;;;;;5030003;28;20040;-81
2021/07/03 08:05:37;;;;;;;6.82;5.07;;;20.80;99.90;;;;;;5024845;28;20050;-83
2021/07/03 08:08:06;;;;;;;8.77;5.43;;;20.80;99.90;;;;;;5017708;28;20100;-82
2021/07/03 08:10:33;;;;;;;6.43;4.65;;;20.80;99.90;;;;;;5031689;28;20041;-82
2021/07/03 08:12:59;;;;;;;6.82;4.93;;;20.90;99.90;;;;;;5021132;28;20044;-81
2021/07/03 08:15:25;;;;;;;6.90;4.78;;;20.80;99.90;;;;;;5016604;28;20037;-81
2021/07/03 08:17:51;;;;;;;7.65;4.82;;;20.70;99.90;;;;;;5024143;28;20047;-81
2021/07/03 08:20:21;;;;;;;8.35;4.55;;;20.70;99.90;;;;;;5017258;28;20030;-81
2021/07/03 08:22:50;;;;;;;7.78;4.72;;;20.70;99.90;;;;;;5026938;28;20114;-81
2021/07/03 08:25:17;;;;;;;7.95;4.82;;;20.60;99.90;;;;;;5028979;28;20030;-80
2021/07/03 08:27:44;;;;;;;9.93;5.50;;;20.70;99.90;;;;;;5027008;28;20030;-82
2021/07/03 08:30:11;;;;;;;5.82;4.72;;;20.70;99.90;;;;;;5026768;28;20430;-79
2021/07/03 08:32:37;;;;;;;8.25;4.97;;;20.90;99.90;;;;;;5027585;28;20041;-82
2021/07/03 08:35:05;;;;;;;6.50;4.70;;;21.00;99.90;;;;;;5032243;28;20033;-80
2021/07/03 08:37:31;;;;;;;6.95;4.72;;;21.00;99.90;;;;;;5019935;28;20037;-78
2021/07/03 08:39:57;;;;;;;7.13;5.07;;;21.10;99.90;;;;;;5027847;28;20567;-79
2021/07/03 08:42:23;;;;;;;7.57;4.75;;;21.10;99.90;;;;;;5032107;28;20065;-83
2021/07/03 08:44:50;;;;;;;6.93;4.57;;;20.90;99.90;;;;;;5010488;28;20738;-80
2021/07/03 08:47:17;;;;;;;8.95;5.50;;;20.80;99.90;;;;;;5016106;28;20244;-82
2021/07/03 08:49:53;;;;;;;10.10;5.70;;;20.70;99.90;;;;;;5027235;28;20040;-80
2021/07/03 08:52:19;;;;;;;6.88;5.28;;;20.80;99.90;;;;;;5014931;28;20030;-81
2021/07/03 08:55:10;;;;;;;8.43;5.40;;;20.80;99.90;;;;;;5019849;28;20433;-81
2021/07/03 08:57:51;;;;;;;10.75;6.35;;;20.70;99.90;;;;;;5015451;28;20041;-81
2021/07/03 09:00:31;;;;;;;9.23;6.18;;;20.90;99.90;;;;;;5025621;28;20048;-81
2021/07/03 09:02:58;;;;;;;8.25;5.57;;;20.90;99.90;;;;;;5012859;28;20052;-81
2021/07/03 09:05:30;;;;;;;11.70;5.85;;;20.90;99.90;;;;;;5024577;28;20504;-80
2021/07/03 09:08:04;;;;;;;7.38;5.65;;;21.00;99.90;;;;;;5036159;28;20168;-81
2021/07/03 09:10:32;;;;;;;10.93;6.20;;;21.10;99.90;;;;;;5031804;28;20033;-81
2021/07/03 09:12:59;;;;;;;9.65;6.18;;;21.30;99.90;;;;;;5017304;28;20038;-82
2021/07/03 09:15:27;;;;;;;7.60;6.05;;;21.20;99.90;;;;;;5029061;28;20033;-83
2021/07/03 09:18:04;;;;;;;8.85;6.68;;;21.20;99.90;;;;;;5023688;28;20037;-82
2021/07/03 09:20:36;;;;;;;11.07;5.75;;;21.30;99.90;;;;;;5032136;28;20044;-80
2021/07/03 09:23:35;;;;;;;8.50;6.00;;;21.40;99.90;;;;;;5031705;28;20052;-81
2021/07/03 09:26:04;;;;;;;9.23;6.38;;;21.50;99.90;;;;;;5010236;28;20057;-82
2021/07/03 09:28:33;;;;;;;9.57;5.82;;;21.60;99.90;;;;;;5021013;28;20045;-78
2021/07/03 09:31:00;;;;;;;8.45;6.10;;;21.50;99.90;;;;;;5030799;28;20036;-79
2021/07/03 09:33:31;;;;;;;8.25;5.72;;;21.60;99.90;;;;;;5028382;28;20694;-80
2021/07/03 09:35:59;;;;;;;9.30;6.80;;;21.70;99.90;;;;;;5034953;28;20037;-81
2021/07/03 09:38:39;;;;;;;9.13;7.20;;;21.90;99.90;;;;;;5040374;28;20030;-81
2021/07/03 09:41:31;;;;;;;10.48;7.13;;;21.90;99.90;;;;;;5026832;28;20030;-80
2021/07/03 09:44:00;;;;;;;11.35;7.18;;;21.90;99.90;;;;;;5023733;28;20037;-82
2021/07/03 09:46:29;;;;;;;7.90;6.95;;;22.10;99.90;;;;;;5026514;28;20036;-83
2021/07/03 09:49:06;;;;;;;10.80;7.82;;;22.10;99.90;;;;;;5024508;28;20094;-81
2021/07/03 09:51:46;;;;;;;10.40;8.70;;;22.10;99.90;;;;;;5018976;28;20048;-83
2021/07/03 09:54:15;;;;;;;10.23;7.50;;;22.10;99.90;;;;;;5026776;28;20034;-84
2021/07/03 09:56:41;;;;;;;10.10;8.27;;;22.10;99.90;;;;;;5031046;28;20038;-82
2021/07/03 09:59:08;;;;;;;11.90;8.15;;;22.20;99.90;;;;;;5031644;28;20056;-82
2021/07/03 10:01:34;;;;;;;11.13;8.60;;;22.20;99.90;;;;;;5031092;28;20091;-82
2021/07/03 10:04:03;;;;;;;10.25;8.43;;;22.30;99.90;;;;;;5028627;28;20042;-82
2021/07/03 10:06:41;;;;;;;11.23;8.50;;;22.30;99.90;;;;;;5031957;28;20073;-79
2021/07/03 10:09:11;;;;;;;9.43;7.82;;;22.30;99.90;;;;;;5027187;28;20044;-79
2021/07/03 10:11:45;;;;;;;8.95;7.38;;;22.20;99.90;;;;;;5028505;28;20088;-79
2021/07/03 10:14:12;;;;;;;10.63;7.65;;;22.20;99.90;;;;;;5011870;28;20045;-78
2021/07/03 10:16:38;;;;;;;10.95;7.35;;;22.30;99.90;;;;;;5026275;28;20033;-78
2021/07/03 10:19:14;;;;;;;7.70;6.70;;;22.50;99.90;;;;;;5020905;28;20045;-79
2021/07/03 10:21:44;;;;;;;8.93;6.43;;;22.70;99.90;;;;;;5024967;28;20038;-79
2021/07/03 10:24:22;;;;;;;8.85;6.30;;;22.90;99.90;;;;;;5024524;28;20296;-79
2021/07/03 10:26:50;;;;;;;11.05;7.32;;;23.10;98.40;;;;;;5029923;28;20124;-80
2021/07/03 10:29:24;;;;;;;10.55;6.75;;;23.00;99.90;;;;;;5026701;28;20041;-79
2021/07/03 10:31:52;;;;;;;8.77;6.72;;;23.10;99.90;;;;;;5011998;28;20042;-80
2021/07/03 10:34:35;;;;;;;10.25;6.82;;;23.30;99.10;;;;;;5023064;28;20037;-79
2021/07/03 10:37:03;;;;;;;9.93;7.10;;;23.30;99.90;;;;;;5021571;28;20038;-81
2021/07/03 10:39:38;;;;;;;8.60;6.10;;;23.40;96.60;;;;;;5029415;28;20590;-79
2021/07/03 10:42:04;;;;;;;7.38;5.72;;;23.30;99.90;;;;;;5020691;28;20503;-79
2021/07/03 10:44:41;;;;;;;9.32;6.10;;;23.50;99.90;;;;;;5028641;28;20079;-84
2021/07/03 10:47:12;;;;;;;7.75;5.45;;;23.70;99.00;;;;;;4995130;28;20042;-78
2021/07/03 10:49:39;;;;;;;8.13;4.97;;;23.70;94.40;;;;;;5009219;28;20057;-79
2021/07/03 10:52:17;;;;;;;7.60;4.80;;;23.80;96.10;;;;;;5021632;28;20484;-79
2021/07/03 10:54:44;;;;;;;9.18;5.28;;;23.80;94.70;;;;;;5033518;28;20129;-81
2021/07/03 10:57:11;;;;;;;9.05;5.82;;;24.00;92.50;;;;;;5026468;28;20068;-79
2021/07/03 10:59:41;;;;;;;9.32;4.75;;;24.00;93.30;;;;;;5033650;28;20506;-79
2021/07/03 11:02:18;;;;;;;5.70;4.45;;;23.90;94.10;;;;;;5031179;28;20140;-79
2021/07/03 11:04:45;;;;;;;7.88;5.18;;;24.10;94.40;;;;;;5030749;28;20049;-79
2021/07/03 11:07:39;;;;;;;8.55;5.15;;;24.20;92.30;;;;;;5017251;28;20496;-79
2021/07/03 11:10:11;;;;;;;6.15;4.65;;;24.30;93.10;;;;;;5029901;28;20122;-78
2021/07/03 11:12:44;;;;;;;8.32;5.00;;;24.50;93.20;;;;;;5027295;28;20041;-79
2021/07/03 11:15:13;;;;;;;6.97;4.82;;;24.60;94.20;;;;;;5017531;28;20038;-79
2021/07/03 11:17:39;;;;;;;6.85;4.97;;;24.80;91.20;;;;;;5020325;28;20026;-79
2021/07/03 11:20:09;;;;;;;6.28;4.65;;;24.80;90.90;;;;;;5016396;28;20041;-79
2021/07/03 11:22:42;;;;;;;6.03;4.68;;;24.80;87.60;;;;;;5031268;28;20065;-78
2021/07/03 11:25:08;;;;;;;7.45;4.85;;;24.60;86.60;;;;;;5017644;28;20041;-79
2021/07/03 11:27:40;;;;;;;7.32;4.88;;;24.60;90.20;;;;;;5030106;28;20040;-78
2021/07/03 11:30:18;;;;;;;6.90;4.35;;;24.50;84.60;;;;;;5024676;28;20046;-78
2021/07/03 11:32:52;;;;;;;7.22;4.90;;;24.60;90.20;;;;;;5016970;28;20034;-78
2021/07/03 11:35:20;;;;;;;7.15;4.70;;;24.80;86.50;;;;;;5027130;28;20041;-78
2021/07/03 11:37:47;;;;;;;11.15;5.97;;;25.00;90.70;;;;;;5017482;28;20116;-78
2021/07/03 11:40:17;;;;;;;6.80;4.68;;;25.30;87.20;;;;;;5012315;28;20053;-78
2021/07/03 11:42:47;;;;;;;6.18;5.10;;;25.50;86.00;;;;;;5015040;28;20042;-79
2021/07/03 11:45:16;;;;;;;6.47;4.13;;;25.60;84.20;;;;;;5014767;28;20042;-78
2021/07/03 11:47:52;;;;;;;5.13;4.15;;;25.70;82.00;;;;;;5014875;28;20049;-78
2021/07/03 11:50:21;;;;;;;8.27;4.97;;;25.80;78.80;;;;;;5014845;28;20766;-78
2021/07/03 11:52:52;;;;;;;5.75;4.47;;;25.80;83.10;;;;;;5025560;28;20064;-78
2021/07/03 11:55:37;;;;;;;5.30;4.30;;;25.90;82.20;;;;;;5019642;28;20124;-77
2021/07/03 11:58:04;;;;;;;7.82;4.97;;;26.10;80.30;;;;;;5025712;28;20386;-77
2021/07/03 12:00:35;;;;;;;8.27;4.40;;;26.20;81.50;;;;;;5028415;28;20463;-78
2021/07/03 12:03:02;;;;;;;5.30;4.38;;;26.30;80.40;;;;;;5013222;28;20038;-77
2021/07/03 12:05:34;;;;;;;6.18;4.30;;;26.50;81.00;;;;;;5015040;28;20049;-78
2021/07/03 12:08:03;;;;;;;5.95;4.18;;;26.60;81.10;;;;;;5023912;28;20394;-78
2021/07/03 12:10:39;;;;;;;5.78;3.80;;;26.50;78.20;;;;;;5027515;28;20065;-79
2021/07/03 12:13:21;;;;;;;4.70;3.30;;;26.20;75.50;;;;;;5015955;28;20476;-78
2021/07/03 12:16:11;;;;;;;5.57;3.60;;;26.00;77.70;;;;;;5029704;28;20045;-78
2021/07/03 12:18:59;;;;;;;7.95;3.85;;;26.00;73.20;;;;;;5018165;28;20045;-78
2021/07/03 12:21:25;;;;;;;5.72;3.95;;;25.90;73.20;;;;;;5020016;28;20052;-79
2021/07/03 12:24:07;;;;;;;6.47;4.60;;;26.20;72.10;;;;;;5014221;28;20408;-78
2021/07/03 12:26:50;;;;;;;6.65;4.75;;;26.30;73.40;;;;;;5015197;28;20042;-79
2021/07/03 12:29:24;;;;;;;6.38;4.13;;;26.30;71.90;;;;;;5033739;28;20038;-79
2021/07/03 12:31:50;;;;;;;4.95;4.07;;;26.50;72.40;;;;;;5018246;28;20479;-79
2021/07/03 12:34:26;;;;;;;7.72;4.40;;;26.80;73.20;;;;;;5030093;28;20072;-78
2021/07/03 12:36:58;;;;;;;5.68;4.07;;;27.10;74.50;;;;;;5019218;28;20386;-79
2021/07/03 12:39:24;;;;;;;5.57;4.10;;;27.10;70.80;;;;;;5032292;28;20033;-79
2021/07/03 12:41:58;;;;;;;4.18;3.53;;;27.10;71.10;;;;;;5027842;28;20044;-79
2021/07/03 12:44:38;;;;;;;5.10;3.47;;;27.20;67.80;;;;;;5033162;28;20395;-79
2021/07/03 12:47:06;;;;;;;4.70;3.63;;;27.00;69.00;;;;;;5033154;28;20545;-79